Time;durP1;ratioP1;P1;durP2;ratioP2;P2;SDS_P1;SDS_P2;PMS_P1;PMS_P2;Temp;Humidity;BMP_temperature;BMP_pressure;BME280_temperature;BME280_humidity;BME280_pressure;Samples;Min_cycle;Max_cycle;Signal;HPM_P1;HPM_P2
2023/06/24 00:02:14;;;;;;;9.27;8.18;;;;;;;21.75;64.13;102319.25;5069633;28;20437;-70
2023/06/24 00:04:40;;;;;;;9.07;8.18;;;;;;;21.76;63.99;102326.56;5068589;28;20028;-70
2023/06/24 00:07:06;;;;;;;11.35;8.70;;;;;;;21.68;64.08;102324.38;5067427;28;20028;-70
2023/06/24 00:09:31;;;;;;;9.43;8.25;;;;;;;21.65;64.02;102322.13;5066479;28;20044;-70
2023/06/24 00:12:00;;;;;;;10.60;8.48;;;;;;;21.66;64.19;102323.81;5058899;28;20067;-70
2023/06/24 00:14:27;;;;;;;9.40;8.30;;;;;;;21.60;64.55;102327.81;5068443;28;20024;-70
2023/06/24 00:16:54;;;;;;;10.23;8.10;;;;;;;21.59;64.49;102320.47;5068263;28;20780;-70
2023/06/24 00:19:21;;;;;;;13.48;8.85;;;;;;;21.58;64.42;102332.94;5069264;28;20441;-70
2023/06/24 00:21:53;;;;;;;12.27;9.45;;;;;;;21.49;64.59;102331.81;5066691;28;20024;-70
2023/06/24 00:24:25;;;;;;;9.43;8.40;;;;;;;21.55;64.33;102327.84;5069211;28;20408;-70
2023/06/24 00:26:54;;;;;;;9.70;8.80;;;;;;;21.49;64.56;102332.66;5068620;28;20032;-70
2023/06/24 00:29:19;;;;;;;9.90;8.90;;;;;;;21.51;64.61;102332.41;5056123;28;20028;-70
2023/06/24 00:31:45;;;;;;;10.50;8.95;;;;;;;21.49;64.63;102337.47;5059323;28;20107;-70
2023/06/24 00:34:10;;;;;;;11.52;9.43;;;;;;;21.47;64.46;102345.41;5064953;28;20031;-70
2023/06/24 00:36:36;;;;;;;10.13;9.13;;;;;;;21.45;64.25;102334.38;5049147;28;20051;-70
2023/06/24 00:39:03;;;;;;;11.68;10.48;;;;;;;21.45;63.98;102337.22;5052828;28;20024;-70
2023/06/24 00:41:29;;;;;;;12.82;10.98;;;;;;;21.44;63.59;102338.34;5067543;28;20059;-70
2023/06/24 00:43:57;;;;;;;13.18;10.73;;;;;;;21.39;63.14;102337.56;5068121;28;20121;-71
2023/06/24 00:46:25;;;;;;;11.23;10.13;;;;;;;21.37;62.60;102339.81;5069036;28;20032;-70
2023/06/24 00:48:51;;;;;;;11.38;9.18;;;;;;;21.35;61.88;102342.09;5067883;28;20037;-71
2023/06/24 00:51:16;;;;;;;11.95;9.50;;;;;;;21.39;61.54;102343.19;5066982;28;20025;-70
2023/06/24 00:53:41;;;;;;;10.32;9.32;;;;;;;21.35;61.39;102351.41;5068551;28;20028;-70
2023/06/24 00:56:07;;;;;;;10.70;9.60;;;;;;;21.34;61.23;102352.56;5062925;28;20025;-70
2023/06/24 00:58:36;;;;;;;10.82;9.73;;;;;;;21.27;61.16;102350.00;5072558;28;20082;-70
2023/06/24 01:01:02;;;;;;;11.63;9.25;;;;;;;21.30;60.97;102352.25;5072830;28;20074;-70
2023/06/24 01:03:28;;;;;;;10.57;9.40;;;;;;;21.24;60.48;102344.06;5071725;28;20119;-70
2023/06/24 01:05:54;;;;;;;13.02;8.77;;;;;;;21.24;60.84;102339.28;5072307;28;20071;-70
2023/06/24 01:08:22;;;;;;;12.27;8.98;;;;;;;21.21;60.88;102337.03;5072991;28;20590;-70
2023/06/24 01:10:49;;;;;;;11.25;8.63;;;;;;;21.22;60.99;102335.03;5070699;28;20040;-70
2023/06/24 01:13:15;;;;;;;9.68;8.75;;;;;;;21.18;61.07;102337.63;5068862;28;20044;-70
2023/06/24 01:15:40;;;;;;;9.80;8.80;;;;;;;21.14;61.30;102336.47;5072197;28;20527;-70
2023/06/24 01:18:18;;;;;;;8.98;8.07;;;;;;;21.15;61.40;102334.53;5071471;28;20036;-70
2023/06/24 01:20:56;;;;;;;11.52;8.63;;;;;;;21.08;61.43;102337.66;5071558;28;20037;-70
2023/06/24 01:23:52;;;;;;;10.32;9.23;;;;;;;21.09;61.33;102328.88;5071949;28;20108;-70
2023/06/24 01:26:32;;;;;;;9.15;8.20;;;;;;;21.00;61.37;102327.78;5069202;28;20075;-70
2023/06/24 01:29:22;;;;;;;87.93;12.90;;;;;;;21.10;61.19;102329.72;5067093;28;20372;-70
2023/06/24 01:31:59;;;;;;;12.52;9.27;;;;;;;20.99;61.24;102319.63;5061391;28;20067;-70
2023/06/24 01:34:37;;;;;;;11.05;9.07;;;;;;;20.99;61.20;102322.44;5070432;28;20025;-70
2023/06/24 01:37:26;;;;;;;10.20;9.13;;;;;;;20.92;61.55;102327.56;5062868;28;20064;-70
2023/06/24 01:40:09;;;;;;;12.38;10.07;;;;;;;20.91;61.65;102323.88;5062450;28;20907;-70
2023/06/24 01:42:38;;;;;;;11.40;9.38;;;;;;;20.88;61.58;102318.81;5054179;28;20033;-70
2023/06/24 01:45:06;;;;;;;9.90;8.82;;;;;;;20.79;61.92;102326.19;5050630;28;20025;-70
2023/06/24 01:47:33;;;;;;;10.65;8.98;;;;;;;20.79;61.90;102327.03;5060274;28;20157;-70
2023/06/24 01:50:01;;;;;;;9.95;8.65;;;;;;;20.75;61.83;102325.91;5069345;28;20029;-70
2023/06/24 01:52:29;;;;;;;10.23;9.10;;;;;;;20.75;62.00;102316.56;5070825;28;20036;-70
2023/06/24 01:54:55;;;;;;;448.73;24.75;;;;;;;20.83;61.88;102319.69;5058680;28;20024;-71
2023/06/24 01:57:23;;;;;;;11.70;8.30;;;;;;;20.82;61.57;102322.78;5053690;28;20029;-70
2023/06/24 01:59:49;;;;;;;12.60;8.98;;;;;;;20.82;61.49;102317.97;5057875;28;20024;-70
2023/06/24 02:02:15;;;;;;;10.73;9.05;;;;;;;20.78;61.60;102319.66;5067803;28;20035;-70
2023/06/24 02:04:43;;;;;;;12.15;8.68;;;;;;;20.74;61.55;102314.88;5063469;28;20029;-70
2023/06/24 02:07:10;;;;;;;12.00;8.32;;;;;;;20.66;61.64;102307.84;5069408;28;20037;-70
2023/06/24 02:09:36;;;;;;;9.93;8.70;;;;;;;20.64;61.65;102307.31;5052179;28;20085;-70
2023/06/24 02:12:03;;;;;;;14.48;8.60;;;;;;;20.62;61.47;102312.38;5051442;28;20105;-70
2023/06/24 02:14:32;;;;;;;11.48;9.05;;;;;;;20.56;61.58;102299.44;5057332;28;20467;-69
2023/06/24 02:17:00;;;;;;;10.77;8.50;;;;;;;20.54;61.54;102304.50;5070179;28;20529;-70
2023/06/24 02:19:29;;;;;;;10.02;8.10;;;;;;;20.51;61.60;102307.88;5064836;28;20112;-70
2023/06/24 02:21:56;;;;;;;17.13;9.40;;;;;;;20.48;61.75;102314.94;5070786;28;20043;-70
2023/06/24 02:24:23;;;;;;;11.43;8.20;;;;;;;20.48;61.61;102309.28;5070090;28;20063;-70
2023/06/24 02:26:50;;;;;;;9.52;8.52;;;;;;;20.45;61.66;102307.03;5069697;28;20373;-70
2023/06/24 02:29:17;;;;;;;10.43;8.45;;;;;;;20.47;61.71;102315.19;5055065;28;20025;-70
2023/06/24 02:31:43;;;;;;;31.85;9.32;;;;;;;20.42;62.01;102310.41;5060189;28;20098;-70
2023/06/24 02:34:08;;;;;;;9.90;8.57;;;;;;;20.37;62.18;102316.06;5062042;28;20456;-70
2023/06/24 02:36:34;;;;;;;10.95;8.73;;;;;;;20.30;62.17;102313.53;5070460;28;20032;-70
2023/06/24 02:38:59;;;;;;;12.95;7.78;;;;;;;20.26;62.27;102308.75;5067350;28;20028;-70
2023/06/24 02:41:24;;;;;;;11.05;8.32;;;;;;;20.20;62.34;102304.22;5051332;28;20033;-70
2023/06/24 02:43:50;;;;;;;10.25;9.15;;;;;;;20.17;62.87;102308.47;5063181;28;20063;-70
2023/06/24 02:46:16;;;;;;;11.57;8.95;;;;;;;20.15;62.82;102305.09;5070586;28;20028;-70
2023/06/24 02:48:43;;;;;;;10.27;8.38;;;;;;;20.15;62.95;102307.91;5066790;28;20025;-70
2023/06/24 02:51:12;;;;;;;10.60;9.18;;;;;;;20.11;63.08;102304.78;5067693;28;20029;-70
2023/06/24 02:53:38;;;;;;;10.05;8.93;;;;;;;20.07;63.03;102303.66;5067256;28;20123;-71
2023/06/24 02:56:05;;;;;;;10.02;8.32;;;;;;;20.09;62.98;102304.25;5053092;28;20116;-70
2023/06/24 02:58:31;;;;;;;9.30;8.38;;;;;;;20.03;62.79;102312.97;5061425;28;20040;-70
2023/06/24 03:01:02;;;;;;;8.90;8.07;;;;;;;19.99;63.13;102323.13;5070222;28;20024;-70
2023/06/24 03:03:28;;;;;;;12.90;8.98;;;;;;;20.01;63.01;102318.06;5068388;28;20107;-70
2023/06/24 03:05:56;;;;;;;12.85;8.27;;;;;;;19.95;63.02;102320.03;5069292;28;20124;-70
2023/06/24 03:08:22;;;;;;;10.35;8.57;;;;;;;19.96;63.04;102327.34;5068058;28;20134;-70
2023/06/24 03:10:47;;;;;;;9.15;8.32;;;;;;;19.95;63.29;102330.44;5050587;28;20028;-71
2023/06/24 03:13:13;;;;;;;10.73;8.95;;;;;;;19.91;63.33;102329.31;5050191;28;20575;-70
2023/06/24 03:15:38;;;;;;;11.00;8.30;;;;;;;19.90;63.43;102336.94;5069309;28;20063;-70
2023/06/24 03:18:04;;;;;;;10.27;8.00;;;;;;;19.86;63.63;102332.97;5069101;28;20027;-70
2023/06/24 03:20:35;;;;;;;10.07;8.05;;;;;;;19.85;63.56;102326.50;5068554;28;20025;-71
2023/06/24 03:23:01;;;;;;;9.05;8.00;;;;;;;19.84;63.46;102333.25;5068217;28;20029;-70
2023/06/24 03:25:26;;;;;;;9.75;8.57;;;;;;;19.78;63.44;102325.94;5069714;28;20058;-71
2023/06/24 03:27:51;;;;;;;9.70;8.02;;;;;;;19.78;63.49;102322.28;5064493;28;20480;-71
2023/06/24 03:30:17;;;;;;;9.43;8.52;;;;;;;19.73;63.52;102319.41;5069196;28;20031;-69
2023/06/24 03:32:46;;;;;;;9.82;8.82;;;;;;;19.70;63.19;102323.66;5068813;28;20511;-69
2023/06/24 03:35:15;;;;;;;10.27;9.05;;;;;;;19.68;63.77;102325.06;5069518;28;20028;-69
2023/06/24 03:37:40;;;;;;;9.95;8.95;;;;;;;19.60;64.24;102324.44;5067010;28;20032;-69
2023/06/24 03:40:06;;;;;;;9.90;8.90;;;;;;;19.63;64.40;102314.63;5069792;28;20028;-70
2023/06/24 03:42:32;;;;;;;11.45;9.43;;;;;;;19.60;64.57;102312.34;5069107;28;20097;-71
2023/06/24 03:44:57;;;;;;;10.88;9.77;;;;;;;19.61;64.39;102317.75;5065176;28;20449;-71
2023/06/24 03:47:22;;;;;;;12.38;11.18;;;;;;;19.61;64.43;102320.56;5068779;28;20460;-70
2023/06/24 03:49:47;;;;;;;11.85;10.25;;;;;;;19.60;64.38;102323.59;5069083;28;20104;-70
2023/06/24 03:52:13;;;;;;;12.98;10.10;;;;;;;19.61;64.24;102322.50;5068848;28;20029;-70
2023/06/24 03:54:40;;;;;;;12.40;10.50;;;;;;;19.57;64.35;102326.97;5067327;28;20101;-71
2023/06/24 03:57:06;;;;;;;12.35;11.05;;;;;;;19.56;64.37;102328.09;5069686;28;20032;-71
2023/06/24 03:59:32;;;;;;;12.60;10.88;;;;;;;19.55;64.46;102335.72;5062060;28;20036;-70
2023/06/24 04:01:57;;;;;;;14.73;11.00;;;;;;;19.53;64.44;102335.16;5065625;28;20039;-71
2023/06/24 04:04:23;;;;;;;11.95;10.75;;;;;;;19.53;64.86;102334.28;5068564;28;20431;-70
2023/06/24 04:06:48;;;;;;;12.98;11.57;;;;;;;19.53;64.22;102335.16;5066476;28;20033;-71
2023/06/24 04:09:14;;;;;;;12.70;11.40;;;;;;;19.50;64.48;102337.69;5067735;28;20032;-70
2023/06/24 04:11:39;;;;;;;11.98;10.85;;;;;;;19.52;64.44;102343.88;5068357;28;20056;-71
2023/06/24 04:14:06;;;;;;;12.07;10.88;;;;;;;19.50;64.44;102327.25;5068683;28;20055;-70
2023/06/24 04:16:32;;;;;;;13.65;12.20;;;;;;;19.49;64.63;102335.97;5064808;28;20036;-71
2023/06/24 04:18:57;;;;;;;13.13;11.40;;;;;;;19.50;64.28;102332.03;5068639;28;20033;-71
2023/06/24 04:21:23;;;;;;;13.18;10.95;;;;;;;19.45;64.32;102329.19;5068597;28;20039;-71
2023/06/24 04:23:48;;;;;;;12.57;11.27;;;;;;;19.46;64.60;102333.72;5068333;28;20024;-71
2023/06/24 04:26:13;;;;;;;13.15;11.80;;;;;;;19.49;64.41;102345.28;5068406;28;20060;-70
2023/06/24 04:28:39;;;;;;;13.95;11.10;;;;;;;19.48;64.08;102340.75;5068544;28;20505;-70
2023/06/24 04:31:05;;;;;;;14.07;10.95;;;;;;;19.52;63.48;102338.22;5067561;28;20124;-70
2023/06/24 04:33:30;;;;;;;12.52;11.05;;;;;;;19.50;63.40;102330.06;5064886;28;20119;-70
2023/06/24 04:35:56;;;;;;;15.05;11.40;;;;;;;19.53;63.65;102334.28;5052454;28;20029;-71
2023/06/24 04:38:21;;;;;;;12.95;11.07;;;;;;;19.53;63.67;102328.66;5052763;28;20388;-70
2023/06/24 04:40:46;;;;;;;12.32;11.02;;;;;;;19.55;63.61;102335.72;5051894;28;20024;-71
2023/06/24 04:43:12;;;;;;;14.43;11.55;;;;;;;19.56;62.42;102336.56;5054977;28;20111;-71
2023/06/24 04:45:37;;;;;;;14.00;11.40;;;;;;;19.54;62.45;102336.00;5072168;28;20029;-71
2023/06/24 04:48:03;;;;;;;12.85;11.15;;;;;;;19.52;61.78;102335.41;5071523;28;20108;-70
2023/06/24 04:50:28;;;;;;;16.45;11.27;;;;;;;19.56;61.89;102342.19;5060188;28;20342;-70
2023/06/24 04:52:54;;;;;;;13.88;11.65;;;;;;;19.58;61.28;102337.13;5061920;28;20032;-71
2023/06/24 04:55:21;;;;;;;15.25;12.40;;;;;;;19.60;61.37;102334.88;5071126;28;20487;-71
2023/06/24 04:57:47;;;;;;;14.95;13.02;;;;;;;19.61;61.43;102339.41;5070091;28;20077;-71
2023/06/24 05:00:12;;;;;;;16.08;13.75;;;;;;;19.64;61.26;102344.47;5054984;28;20027;-69
2023/06/24 05:02:38;;;;;;;16.77;12.40;;;;;;;19.67;62.02;102338.31;5055318;28;20056;-70
2023/06/24 05:05:03;;;;;;;20.10;13.60;;;;;;;19.75;61.15;102337.75;5053078;28;20035;-71
2023/06/24 05:07:32;;;;;;;18.13;14.90;;;;;;;19.75;61.32;102334.94;5070216;28;20029;-69
2023/06/24 05:09:57;;;;;;;18.60;15.00;;;;;;;19.74;61.26;102338.03;5064850;28;20032;-70
2023/06/24 05:12:22;;;;;;;17.98;14.85;;;;;;;19.78;61.37;102339.16;5057218;28;20051;-70
2023/06/24 05:14:54;;;;;;;18.60;14.93;;;;;;;19.80;61.16;102343.38;5069412;28;20051;-70
2023/06/24 05:17:20;;;;;;;17.35;14.98;;;;;;;19.82;60.87;102338.34;5066794;28;20052;-69
2023/06/24 05:19:45;;;;;;;19.02;15.43;;;;;;;19.82;60.89;102343.13;5069727;28;20036;-69
2023/06/24 05:22:10;;;;;;;17.00;15.20;;;;;;;19.86;60.88;102339.47;5071888;28;20028;-68
2023/06/24 05:24:36;;;;;;;15.93;14.25;;;;;;;19.90;60.82;102333.28;5071140;28;20060;-69
2023/06/24 05:27:05;;;;;;;17.17;15.30;;;;;;;19.91;60.67;102329.31;5072000;28;20106;-69
2023/06/24 05:29:31;;;;;;;17.67;14.50;;;;;;;19.96;60.27;102332.13;5071891;28;20761;-68
2023/06/24 05:31:57;;;;;;;16.30;13.85;;;;;;;19.97;60.12;102329.06;5072137;28;20043;-68
2023/06/24 05:34:22;;;;;;;17.35;14.10;;;;;;;20.03;60.05;102338.34;5071194;28;20499;-71
2023/06/24 05:36:47;;;;;;;17.17;13.65;;;;;;;20.11;59.83;102338.63;5065382;28;20033;-72
2023/06/24 05:39:13;;;;;;;18.02;13.27;;;;;;;20.11;59.43;102347.09;5056165;28;20033;-69
2023/06/24 05:41:38;;;;;;;16.15;13.43;;;;;;;20.15;59.06;102341.72;5055317;28;20025;-69
2023/06/24 05:44:06;;;;;;;14.68;13.07;;;;;;;20.21;59.21;102345.41;5051736;28;20469;-70
2023/06/24 05:46:31;;;;;;;8.95;8.05;;;;;;;20.37;61.73;102344.28;5058510;28;20024;-74
2023/06/24 05:48:56;;;;;;;8.75;6.45;;;;;;;20.50;62.00;102348.50;5072365;28;20025;-74
2023/06/24 05:51:22;;;;;;;9.25;7.53;;;;;;;20.61;61.86;102344.56;5070907;28;20039;-74
2023/06/24 05:53:47;;;;;;;9.27;7.68;;;;;;;20.71;60.97;102358.66;5072077;28;20028;-74
2023/06/24 05:56:13;;;;;;;9.40;8.48;;;;;;;20.80;60.65;102350.44;5063080;28;20035;-73
2023/06/24 05:58:38;;;;;;;9.50;8.32;;;;;;;20.88;59.59;102346.19;5062776;28;20028;-73
2023/06/24 06:01:03;;;;;;;10.18;8.43;;;;;;;20.94;59.51;102345.03;5059586;28;20472;-74
2023/06/24 06:03:28;;;;;;;8.70;7.85;;;;;;;21.02;59.49;102347.25;5051705;28;20550;-74
2023/06/24 06:05:54;;;;;;;13.85;10.05;;;;;;;21.03;57.60;102346.16;5051103;28;20144;-74
2023/06/24 06:08:19;;;;;;;10.50;8.13;;;;;;;21.13;58.46;102348.91;5052157;28;20025;-74
2023/06/24 06:10:44;;;;;;;9.13;7.35;;;;;;;21.20;58.20;102346.63;5051806;28;20040;-74
2023/06/24 06:13:10;;;;;;;11.05;8.82;;;;;;;21.19;57.11;102346.94;5051346;28;20079;-74
2023/06/24 06:15:35;;;;;;;13.82;11.20;;;;;;;21.12;56.08;102355.69;5066524;28;20094;-74
2023/06/24 06:18:00;;;;;;;10.13;8.15;;;;;;;21.25;56.86;102357.06;5065235;28;20020;-74
2023/06/24 06:20:26;;;;;;;8.63;6.88;;;;;;;21.35;56.99;102353.41;5060197;28;20025;-74
2023/06/24 06:22:51;;;;;;;13.45;10.38;;;;;;;21.28;55.50;102348.84;5070869;28;20116;-74
2023/06/24 06:25:16;;;;;;;9.07;7.45;;;;;;;21.41;56.32;102353.06;5071453;28;20043;-74
2023/06/24 06:27:42;;;;;;;11.25;7.53;;;;;;;21.52;56.34;102360.34;5070411;28;20028;-74
2023/06/24 06:30:07;;;;;;;8.80;7.38;;;;;;;21.55;55.27;102364.56;5071774;28;20020;-74
2023/06/24 06:32:33;;;;;;;11.98;9.18;;;;;;;21.50;54.76;102354.16;5070818;28;20420;-74
2023/06/24 06:34:58;;;;;;;9.80;6.80;;;;;;;21.62;55.18;102362.28;5067659;28;20032;-74
2023/06/24 06:37:23;;;;;;;7.25;6.30;;;;;;;21.68;55.13;102346.13;5071145;28;20111;-74
2023/06/24 06:39:49;;;;;;;9.07;7.63;;;;;;;21.73;55.00;102355.44;5083130;28;20036;-75
2023/06/24 06:42:15;;;;;;;8.07;6.45;;;;;;;21.79;54.68;102359.91;5078294;28;20584;-74
2023/06/24 06:44:40;;;;;;;9.05;6.63;;;;;;;21.81;54.17;102368.94;5071628;28;20082;-74
2023/06/24 06:47:06;;;;;;;8.23;6.85;;;;;;;21.85;53.99;102362.69;5068781;28;20563;-74
2023/06/24 06:49:32;;;;;;;10.77;7.18;;;;;;;21.86;54.18;102359.59;5067939;28;20037;-74
2023/06/24 06:51:57;;;;;;;7.20;5.93;;;;;;;21.95;53.80;102362.63;5068869;28;20028;-74
2023/06/24 06:54:22;;;;;;;8.88;6.78;;;;;;;21.97;53.77;102364.03;5061055;28;20040;-74
2023/06/24 06:56:47;;;;;;;7.38;6.13;;;;;;;22.04;53.67;102366.50;5049384;28;20488;-73
2023/06/24 06:59:13;;;;;;;7.07;6.38;;;;;;;22.06;53.42;102365.09;5068780;28;20041;-74
2023/06/24 07:01:38;;;;;;;6.63;5.93;;;;;;;22.13;53.35;102369.59;5069382;28;20066;-74
2023/06/24 07:04:04;;;;;;;7.80;6.78;;;;;;;22.20;53.47;102378.59;5070818;28;20410;-74
2023/06/24 07:06:32;;;;;;;6.70;5.97;;;;;;;22.23;53.04;102386.50;5070921;28;20055;-74
2023/06/24 07:08:57;;;;;;;6.80;5.00;;;;;;;22.32;54.83;102386.69;5068887;28;20099;-74
2023/06/24 07:11:22;;;;;;;7.60;6.10;;;;;;;22.33;53.71;102391.22;5067468;28;20028;-74
2023/06/24 07:13:50;;;;;;;5.30;4.32;;;;;;;22.40;54.46;102391.72;5067163;28;20473;-74
2023/06/24 07:16:16;;;;;;;11.00;5.57;;;;;;;22.44;54.27;102388.03;5058372;28;20434;-74
2023/06/24 07:18:41;;;;;;;9.98;5.57;;;;;;;22.46;54.39;102385.72;5053869;28;20021;-74
2023/06/24 07:21:06;;;;;;;7.22;5.13;;;;;;;22.48;53.74;102383.47;5064185;28;20038;-74
2023/06/24 07:23:32;;;;;;;7.72;5.20;;;;;;;22.52;53.13;102381.72;5061597;28;20016;-75
2023/06/24 07:25:57;;;;;;;11.23;5.70;;;;;;;22.55;52.88;102378.28;5064827;28;20035;-74
2023/06/24 07:28:25;;;;;;;9.52;6.35;;;;;;;22.55;51.94;102386.75;5068487;28;20119;-74
2023/06/24 07:30:50;;;;;;;7.10;4.90;;;;;;;22.64;53.19;102380.50;5061552;28;20464;-74
2023/06/24 07:33:16;;;;;;;6.43;4.65;;;;;;;22.69;53.36;102372.78;5061030;28;20107;-75
2023/06/24 07:35:41;;;;;;;7.72;4.68;;;;;;;22.69;51.37;102375.59;5059727;28;20037;-67
2023/06/24 07:38:06;;;;;;;5.75;4.65;;;;;;;22.69;49.73;102378.44;5065177;28;20047;-75
2023/06/24 07:40:32;;;;;;;7.22;4.68;;;;;;;22.72;49.74;102374.19;5070105;28;20035;-74
2023/06/24 07:42:57;;;;;;;4.40;4.00;;;;;;;22.80;50.40;102384.84;5063686;28;20033;-74
2023/06/24 07:45:23;;;;;;;6.07;4.50;;;;;;;22.79;49.23;102371.81;5065923;28;20039;-74
2023/06/24 07:47:48;;;;;;;6.07;4.05;;;;;;;22.86;49.10;102377.13;5069990;28;20028;-74
2023/06/24 07:50:14;;;;;;;5.85;4.28;;;;;;;22.88;49.28;102378.53;5069208;28;20032;-74
2023/06/24 07:52:39;;;;;;;4.28;3.88;;;;;;;22.92;48.75;102381.63;5067944;28;20056;-75
2023/06/24 07:55:05;;;;;;;4.35;3.90;;;;;;;22.96;48.33;102382.72;5069957;28;20028;-75
2023/06/24 07:57:30;;;;;;;7.72;4.53;;;;;;;22.98;48.96;102374.75;5068880;28;20029;-74
2023/06/24 07:59:56;;;;;;;7.95;4.20;;;;;;;23.09;48.29;102378.31;5069636;28;20031;-74
2023/06/24 08:02:21;;;;;;;7.60;4.63;;;;;;;23.11;47.97;102378.84;5064103;28;20044;-74
2023/06/24 08:04:46;;;;;;;6.03;4.03;;;;;;;23.23;47.11;102371.63;5046838;28;20055;-74
2023/06/24 08:07:12;;;;;;;5.82;3.28;;;;;;;23.27;48.11;102380.38;5065129;28;20435;-75
2023/06/24 08:09:37;;;;;;;6.95;3.70;;;;;;;23.32;47.04;102379.47;5069272;28;20056;-74
2023/06/24 08:12:03;;;;;;;4.70;4.10;;;;;;;23.42;45.80;102376.47;5068776;28;20434;-69
2023/06/24 08:14:29;;;;;;;5.53;3.80;;;;;;;23.45;46.55;102373.06;5067773;28;20112;-69
2023/06/24 08:16:54;;;;;;;5.57;4.22;;;;;;;23.50;45.95;102372.97;5073920;28;20050;-74
2023/06/24 08:19:19;;;;;;;4.10;3.10;;;;;;;23.60;45.27;102374.84;5068685;28;20480;-73
2023/06/24 08:21:45;;;;;;;3.72;3.22;;;;;;;23.57;44.70;102367.78;5068301;28;20443;-74
2023/06/24 08:24:10;;;;;;;4.13;3.10;;;;;;;23.60;45.07;102369.16;5065727;28;20028;-73
2023/06/24 08:26:35;;;;;;;3.05;2.75;;;;;;;23.67;45.78;102364.84;5063519;28;20434;-74
2023/06/24 08:29:01;;;;;;;7.35;3.33;;;;;;;23.73;45.30;102371.28;5080275;28;20024;-74
2023/06/24 08:31:26;;;;;;;4.75;3.30;;;;;;;23.77;44.85;102364.69;5078843;28;20055;-73
2023/06/24 08:33:53;;;;;;;4.22;3.10;;;;;;;23.77;44.21;102359.00;5068572;28;20052;-73
2023/06/24 08:36:23;;;;;;;3.55;3.17;;;;;;;23.77;43.64;102370.34;5069150;28;20142;-73
2023/06/24 08:38:48;;;;;;;3.58;2.78;;;;;;;23.82;43.62;102365.78;5063418;28;20529;-73
2023/06/24 08:41:14;;;;;;;3.33;2.75;;;;;;;23.83;44.19;102368.28;5068957;28;20020;-73
2023/06/24 08:43:39;;;;;;;3.25;2.28;;;;;;;23.87;42.38;102360.88;5069281;28;20479;-74
2023/06/24 08:46:05;;;;;;;5.43;3.17;;;;;;;23.90;42.83;102362.25;5069351;28;20058;-73
2023/06/24 08:48:31;;;;;;;5.32;2.80;;;;;;;23.96;43.58;102347.66;5068953;28;20779;-73
2023/06/24 08:50:58;;;;;;;4.38;2.67;;;;;;;24.06;43.08;102355.19;5068099;28;20055;-73
2023/06/24 08:53:26;;;;;;;3.40;2.72;;;;;;;24.10;42.95;102347.75;5068174;28;20054;-73
2023/06/24 08:55:53;;;;;;;4.05;2.60;;;;;;;24.06;41.88;102349.50;5068577;28;20039;-73
2023/06/24 08:58:19;;;;;;;2.75;2.50;;;;;;;24.19;42.40;102359.22;5063135;28;20037;-73
2023/06/24 09:00:45;;;;;;;3.30;3.00;;;;;;;24.21;42.45;102354.94;5068710;28;20990;-72
2023/06/24 09:03:11;;;;;;;3.47;2.78;;;;;;;24.33;43.59;102365.81;5068912;28;20693;-73
2023/06/24 09:05:36;;;;;;;7.00;2.85;;;;;;;24.35;41.86;102359.81;5069432;28;20032;-72
2023/06/24 09:08:01;;;;;;;4.10;2.55;;;;;;;24.44;42.07;102355.13;5067639;28;20032;-72
2023/06/24 09:10:34;;;;;;;3.85;2.78;;;;;;;24.48;42.55;102356.19;5065619;28;20054;-73
2023/06/24 09:13:01;;;;;;;3.17;2.47;;;;;;;24.54;41.55;102357.78;5057396;28;20150;-73
2023/06/24 09:15:30;;;;;;;4.68;2.70;;;;;;;24.57;42.25;102354.34;5056695;28;20138;-73
2023/06/24 09:17:56;;;;;;;3.55;2.60;;;;;;;24.59;41.30;102352.00;5058637;28;20083;-73
2023/06/24 09:20:22;;;;;;;2.92;2.70;;;;;;;24.62;41.69;102353.41;5070562;28;20123;-74
2023/06/24 09:22:48;;;;;;;4.90;2.75;;;;;;;24.62;41.58;102342.88;5072182;28;20035;-72
2023/06/24 09:25:18;;;;;;;3.80;2.33;;;;;;;24.65;42.15;102345.09;5059631;28;20024;-72
2023/06/24 09:27:55;;;;;;;4.40;2.80;;;;;;;24.67;42.63;102341.94;5066799;28;20039;-75
2023/06/24 09:30:22;;;;;;;6.13;3.35;;;;;;;24.80;42.52;102334.56;5061067;28;20055;-67
2023/06/24 09:32:49;;;;;;;4.22;2.97;;;;;;;24.78;43.02;102334.91;5070758;28;20036;-73
2023/06/24 09:35:14;;;;;;;3.60;3.10;;;;;;;24.88;42.86;102331.03;5062155;28;20060;-69
2023/06/24 09:37:39;;;;;;;6.93;2.50;;;;;;;24.89;41.63;102327.88;5068889;28;20074;-69
2023/06/24 09:40:08;;;;;;;3.70;2.90;;;;;;;24.96;41.26;102322.63;5053468;28;20036;-71
2023/06/24 09:42:34;;;;;;;4.18;2.75;;;;;;;25.13;41.20;102321.16;5052077;28;20546;-66
2023/06/24 09:45:04;;;;;;;4.97;2.72;;;;;;;25.14;40.99;102322.84;5056861;28;20028;-70
2023/06/24 09:47:30;;;;;;;3.03;2.72;;;;;;;25.27;41.55;102316.31;5061438;28;20441;-69
2023/06/24 09:49:55;;;;;;;5.18;2.90;;;;;;;25.37;40.85;102318.09;5057702;28;20079;-70
2023/06/24 09:52:22;;;;;;;3.08;2.78;;;;;;;25.32;41.12;102321.88;5054204;28;20033;-72
2023/06/24 09:54:54;;;;;;;3.58;2.80;;;;;;;25.49;41.33;102315.53;5072215;28;20119;-69
2023/06/24 09:57:27;;;;;;;3.35;2.95;;;;;;;25.39;40.68;102318.63;5071194;28;20384;-68
2023/06/24 09:59:52;;;;;;;7.00;3.13;;;;;;;25.39;40.17;102312.94;5056886;28;20028;-70
2023/06/24 10:02:18;;;;;;;4.60;2.92;;;;;;;25.43;40.67;102319.66;5069466;28;20111;-70
2023/06/24 10:04:46;;;;;;;6.85;3.17;;;;;;;25.45;40.28;102312.47;5065369;28;20051;-71
2023/06/24 10:07:12;;;;;;;3.72;2.90;;;;;;;25.45;39.53;102325.84;5054265;28;20025;-71
2023/06/24 10:09:38;;;;;;;4.20;2.78;;;;;;;25.50;40.29;102320.03;5051838;28;20393;-69
2023/06/24 10:12:04;;;;;;;4.07;2.88;;;;;;;25.58;40.85;102318.44;5050970;28;20404;-68
2023/06/24 10:14:30;;;;;;;4.90;2.70;;;;;;;25.60;40.37;102325.50;5059925;28;20025;-69
2023/06/24 10:17:05;;;;;;;4.15;2.60;;;;;;;25.64;40.67;102320.03;5057030;28;20037;-69
2023/06/24 10:19:38;;;;;;;4.47;2.67;;;;;;;25.53;38.43;102312.88;5057552;28;20065;-70
2023/06/24 10:22:09;;;;;;;2.78;2.55;;;;;;;25.68;38.94;102312.53;5066606;28;20100;-71
2023/06/24 10:24:39;;;;;;;3.63;2.53;;;;;;;25.69;38.99;102315.03;5064541;28;20032;-75
2023/06/24 10:27:08;;;;;;;6.07;3.13;;;;;;;25.75;39.73;102307.25;5063531;28;20434;-66
2023/06/24 10:29:35;;;;;;;5.05;3.10;;;;;;;25.68;38.86;102310.53;5059608;28;20040;-74
2023/06/24 10:32:11;;;;;;;3.25;2.67;;;;;;;25.69;39.65;102300.00;5050529;28;20029;-70
2023/06/24 10:34:56;;;;;;;4.07;2.90;;;;;;;25.72;41.21;102310.72;5055927;28;20067;-72
2023/06/24 10:37:26;;;;;;;5.88;3.17;;;;;;;25.83;41.37;102294.31;5063482;28;20078;-73
2023/06/24 10:39:54;;;;;;;3.70;2.75;;;;;;;25.83;40.73;102294.31;5050679;28;20033;-72
2023/06/24 10:42:33;;;;;;;3.85;3.45;;;;;;;25.81;40.03;102290.91;5051156;28;20102;-72
2023/06/24 10:45:01;;;;;;;4.30;3.15;;;;;;;25.83;40.90;102289.44;5064432;28;20037;-77
2023/06/24 10:47:29;;;;;;;7.43;3.40;;;;;;;25.85;40.79;102286.28;5057048;28;20024;-78
2023/06/24 10:49:54;;;;;;;4.88;3.17;;;;;;;25.95;40.68;102286.03;5053351;28;20539;-77
2023/06/24 10:52:24;;;;;;;4.32;3.13;;;;;;;25.97;39.77;102288.53;5052708;28;20050;-79
2023/06/24 10:54:51;;;;;;;4.13;2.58;;;;;;;26.06;39.23;102287.44;5058128;28;20127;-77
2023/06/24 10:57:27;;;;;;;6.35;3.08;;;;;;;26.09;39.61;102278.25;5069372;28;20039;-78
2023/06/24 10:59:55;;;;;;;3.83;2.95;;;;;;;26.07;40.93;102277.75;5071395;28;20063;-77
2023/06/24 11:02:25;;;;;;;5.32;3.30;;;;;;;26.18;40.92;102284.84;5070888;28;20028;-78
2023/06/24 11:05:02;;;;;;;3.95;3.33;;;;;;;26.25;41.39;102287.22;5061325;28;20036;-78
2023/06/24 11:07:30;;;;;;;4.68;3.05;;;;;;;26.29;39.98;102281.72;5050026;28;20078;-79
2023/06/24 11:09:58;;;;;;;4.32;3.13;;;;;;;26.37;40.58;102280.91;5057542;28;20074;-78
2023/06/24 11:12:25;;;;;;;4.75;3.50;;;;;;;26.35;40.39;102274.72;5070768;28;20020;-76
2023/06/24 11:14:51;;;;;;;4.50;2.92;;;;;;;26.37;40.07;102275.22;5065102;28;20053;-75
2023/06/24 11:17:16;;;;;;;4.85;3.65;;;;;;;26.25;39.39;102263.59;5055104;28;20472;-78
2023/06/24 11:19:43;;;;;;;4.25;3.50;;;;;;;26.33;39.78;102268.50;5066428;28;20656;-79